sensor_id;sensor_type;location;lat;lon;timestamp;P1;durP1;ratioP1;P2;durP2;ratioP2
30571;SDS011;17348;50.948;10.696;2023-07-31T00:01:49;9.25;;;1.38;;
30571;SDS011;17348;50.948;10.696;2023-07-31T00:04:51;5.85;;;1.45;;
30571;SDS011;17348;50.948;10.696;2023-07-31T00:07:54;7.05;;;2.03;;
30571;SDS011;17348;50.948;10.696;2023-07-31T00:10:56;3.88;;;1.27;;
30571;SDS011;17348;50.948;10.696;2023-07-31T00:13:58;4.35;;;1.15;;
30571;SDS011;17348;50.948;10.696;2023-07-31T00:17:02;5.38;;;1.27;;
30571;SDS011;17348;50.948;10.696;2023-07-31T00:20:05;4.25;;;1.55;;
30571;SDS011;17348;50.948;10.696;2023-07-31T00:23:10;6.38;;;1.42;;
30571;SDS011;17348;50.948;10.696;2023-07-31T00:26:12;4.22;;;1.10;;
30571;SDS011;17348;50.948;10.696;2023-07-31T00:29:15;2.83;;;1.15;;
30571;SDS011;17348;50.948;10.696;2023-07-31T00:32:23;6.75;;;1.42;;
30571;SDS011;17348;50.948;10.696;2023-07-31T00:35:26;4.03;;;1.42;;
30571;SDS011;17348;50.948;10.696;2023-07-31T00:38:28;4.28;;;1.17;;
30571;SDS011;17348;50.948;10.696;2023-07-31T00:41:30;4.95;;;1.23;;
30571;SDS011;17348;50.948;10.696;2023-07-31T00:44:35;2.75;;;1.13;;
30571;SDS011;17348;50.948;10.696;2023-07-31T00:47:38;6.45;;;1.10;;
30571;SDS011;17348;50.948;10.696;2023-07-31T00:50:41;6.45;;;1.15;;
30571;SDS011;17348;50.948;10.696;2023-07-31T00:53:43;4.80;;;1.48;;
30571;SDS011;17348;50.948;10.696;2023-07-31T00:56:46;8.68;;;1.73;;
30571;SDS011;17348;50.948;10.696;2023-07-31T00:59:50;6.53;;;1.02;;
30571;SDS011;17348;50.948;10.696;2023-07-31T01:02:53;10.48;;;1.33;;
30571;SDS011;17348;50.948;10.696;2023-07-31T01:05:58;7.60;;;1.77;;
30571;SDS011;17348;50.948;10.696;2023-07-31T01:09:14;5.10;;;1.17;;
30571;SDS011;17348;50.948;10.696;2023-07-31T01:12:30;3.10;;;1.40;;
30571;SDS011;17348;50.948;10.696;2023-07-31T01:15:34;4.88;;;2.05;;
30571;SDS011;17348;50.948;10.696;2023-07-31T01:18:37;6.38;;;1.60;;
30571;SDS011;17348;50.948;10.696;2023-07-31T01:25:16;2.33;;;1.40;;
30571;SDS011;17348;50.948;10.696;2023-07-31T01:28:36;3.95;;;2.00;;
30571;SDS011;17348;50.948;10.696;2023-07-31T01:31:48;4.85;;;1.45;;
30571;SDS011;17348;50.948;10.696;2023-07-31T01:34:51;7.80;;;1.70;;
30571;SDS011;17348;50.948;10.696;2023-07-31T01:37:55;7.70;;;1.48;;
30571;SDS011;17348;50.948;10.696;2023-07-31T01:40:57;5.43;;;1.25;;
30571;SDS011;17348;50.948;10.696;2023-07-31T01:44:05;9.60;;;1.73;;
30571;SDS011;17348;50.948;10.696;2023-07-31T01:47:07;4.80;;;1.55;;
30571;SDS011;17348;50.948;10.696;2023-07-31T01:50:12;5.68;;;1.63;;
30571;SDS011;17348;50.948;10.696;2023-07-31T01:53:18;3.17;;;1.58;;
30571;SDS011;17348;50.948;10.696;2023-07-31T01:56:23;5.80;;;1.40;;
30571;SDS011;17348;50.948;10.696;2023-07-31T01:59:27;5.72;;;1.60;;
30571;SDS011;17348;50.948;10.696;2023-07-31T02:02:29;3.90;;;1.48;;
30571;SDS011;17348;50.948;10.696;2023-07-31T02:05:35;6.47;;;2.30;;
30571;SDS011;17348;50.948;10.696;2023-07-31T02:08:38;2.63;;;1.38;;
30571;SDS011;17348;50.948;10.696;2023-07-31T02:11:42;5.05;;;1.98;;
30571;SDS011;17348;50.948;10.696;2023-07-31T02:14:51;3.65;;;1.88;;
30571;SDS011;17348;50.948;10.696;2023-07-31T02:17:59;6.47;;;1.88;;
30571;SDS011;17348;50.948;10.696;2023-07-31T02:21:01;7.40;;;2.35;;
30571;SDS011;17348;50.948;10.696;2023-07-31T02:24:04;5.78;;;2.00;;
30571;SDS011;17348;50.948;10.696;2023-07-31T02:27:06;5.68;;;1.88;;
30571;SDS011;17348;50.948;10.696;2023-07-31T02:30:11;4.95;;;2.10;;
30571;SDS011;17348;50.948;10.696;2023-07-31T02:33:14;5.65;;;1.67;;
30571;SDS011;17348;50.948;10.696;2023-07-31T02:36:17;7.45;;;2.25;;
30571;SDS011;17348;50.948;10.696;2023-07-31T02:39:19;6.90;;;2.00;;
30571;SDS011;17348;50.948;10.696;2023-07-31T02:42:21;4.70;;;1.83;;
30571;SDS011;17348;50.948;10.696;2023-07-31T02:45:25;7.10;;;1.92;;
30571;SDS011;17348;50.948;10.696;2023-07-31T02:48:28;2.67;;;1.75;;
30571;SDS011;17348;50.948;10.696;2023-07-31T02:51:32;10.15;;;1.90;;
30571;SDS011;17348;50.948;10.696;2023-07-31T02:54:34;7.25;;;1.38;;
30571;SDS011;17348;50.948;10.696;2023-07-31T02:57:37;5.13;;;1.58;;
30571;SDS011;17348;50.948;10.696;2023-07-31T03:00:43;4.80;;;1.92;;
30571;SDS011;17348;50.948;10.696;2023-07-31T03:03:47;6.88;;;1.83;;
30571;SDS011;17348;50.948;10.696;2023-07-31T03:06:49;6.13;;;1.80;;
30571;SDS011;17348;50.948;10.696;2023-07-31T03:13:02;9.95;;;2.05;;
30571;SDS011;17348;50.948;10.696;2023-07-31T03:16:06;4.53;;;1.83;;
30571;SDS011;17348;50.948;10.696;2023-07-31T03:19:08;15.13;;;2.20;;
30571;SDS011;17348;50.948;10.696;2023-07-31T03:22:11;6.43;;;2.05;;
30571;SDS011;17348;50.948;10.696;2023-07-31T03:25:13;3.65;;;1.60;;
30571;SDS011;17348;50.948;10.696;2023-07-31T03:28:16;5.93;;;1.80;;
30571;SDS011;17348;50.948;10.696;2023-07-31T03:31:19;8.05;;;1.98;;
30571;SDS011;17348;50.948;10.696;2023-07-31T03:34:24;4.40;;;2.05;;
30571;SDS011;17348;50.948;10.696;2023-07-31T03:37:27;6.38;;;2.40;;
30571;SDS011;17348;50.948;10.696;2023-07-31T03:40:29;5.25;;;1.75;;
30571;SDS011;17348;50.948;10.696;2023-07-31T03:43:32;3.65;;;2.08;;
30571;SDS011;17348;50.948;10.696;2023-07-31T03:46:36;10.23;;;2.13;;
30571;SDS011;17348;50.948;10.696;2023-07-31T03:49:38;9.75;;;1.90;;
30571;SDS011;17348;50.948;10.696;2023-07-31T03:52:44;7.40;;;1.60;;
30571;SDS011;17348;50.948;10.696;2023-07-31T03:55:52;5.63;;;2.17;;
30571;SDS011;17348;50.948;10.696;2023-07-31T03:58:57;6.90;;;1.90;;
30571;SDS011;17348;50.948;10.696;2023-07-31T04:02:01;4.97;;;1.85;;
30571;SDS011;17348;50.948;10.696;2023-07-31T04:05:03;6.93;;;1.70;;
30571;SDS011;17348;50.948;10.696;2023-07-31T04:08:06;8.25;;;2.03;;
30571;SDS011;17348;50.948;10.696;2023-07-31T04:11:09;4.97;;;2.13;;
30571;SDS011;17348;50.948;10.696;2023-07-31T04:14:12;4.10;;;1.88;;
30571;SDS011;17348;50.948;10.696;2023-07-31T04:17:15;6.45;;;2.15;;
30571;SDS011;17348;50.948;10.696;2023-07-31T04:20:19;8.02;;;1.77;;
30571;SDS011;17348;50.948;10.696;2023-07-31T04:23:21;7.53;;;2.15;;
30571;SDS011;17348;50.948;10.696;2023-07-31T04:26:24;3.13;;;1.90;;
30571;SDS011;17348;50.948;10.696;2023-07-31T04:29:26;9.10;;;2.05;;
30571;SDS011;17348;50.948;10.696;2023-07-31T04:32:32;8.80;;;2.53;;
30571;SDS011;17348;50.948;10.696;2023-07-31T04:35:35;5.93;;;2.53;;
30571;SDS011;17348;50.948;10.696;2023-07-31T04:38:38;7.22;;;2.45;;
30571;SDS011;17348;50.948;10.696;2023-07-31T04:41:41;8.88;;;2.25;;
30571;SDS011;17348;50.948;10.696;2023-07-31T04:44:43;8.70;;;2.10;;
30571;SDS011;17348;50.948;10.696;2023-07-31T04:47:47;4.88;;;2.47;;
30571;SDS011;17348;50.948;10.696;2023-07-31T04:50:50;12.88;;;3.50;;
30571;SDS011;17348;50.948;10.696;2023-07-31T04:53:52;9.15;;;2.78;;
30571;SDS011;17348;50.948;10.696;2023-07-31T04:56:55;11.20;;;2.58;;
30571;SDS011;17348;50.948;10.696;2023-07-31T04:59:57;11.95;;;2.35;;
30571;SDS011;17348;50.948;10.696;2023-07-31T05:03:00;8.00;;;2.92;;
30571;SDS011;17348;50.948;10.696;2023-07-31T05:06:03;16.02;;;2.35;;
30571;SDS011;17348;50.948;10.696;2023-07-31T05:09:08;13.55;;;1.98;;
30571;SDS011;17348;50.948;10.696;2023-07-31T05:12:10;7.60;;;1.98;;
30571;SDS011;17348;50.948;10.696;2023-07-31T05:15:13;7.57;;;2.03;;
30571;SDS011;17348;50.948;10.696;2023-07-31T05:18:17;4.18;;;1.80;;
30571;SDS011;17348;50.948;10.696;2023-07-31T05:21:21;4.72;;;2.13;;
30571;SDS011;17348;50.948;10.696;2023-07-31T05:24:25;8.35;;;2.45;;
30571;SDS011;17348;50.948;10.696;2023-07-31T05:27:28;8.07;;;2.67;;
30571;SDS011;17348;50.948;10.696;2023-07-31T05:30:30;5.25;;;2.20;;
30571;SDS011;17348;50.948;10.696;2023-07-31T05:33:34;4.68;;;2.30;;
30571;SDS011;17348;50.948;10.696;2023-07-31T05:36:36;6.55;;;1.92;;
30571;SDS011;17348;50.948;10.696;2023-07-31T05:39:38;4.97;;;2.40;;
30571;SDS011;17348;50.948;10.696;2023-07-31T05:42:40;8.82;;;2.05;;
30571;SDS011;17348;50.948;10.696;2023-07-31T05:45:43;5.82;;;2.35;;
30571;SDS011;17348;50.948;10.696;2023-07-31T05:48:46;11.82;;;2.08;;
30571;SDS011;17348;50.948;10.696;2023-07-31T05:51:49;19.08;;;2.55;;
30571;SDS011;17348;50.948;10.696;2023-07-31T05:54:51;5.38;;;2.15;;
30571;SDS011;17348;50.948;10.696;2023-07-31T05:57:53;10.02;;;1.95;;
30571;SDS011;17348;50.948;10.696;2023-07-31T06:00:56;9.98;;;2.22;;
30571;SDS011;17348;50.948;10.696;2023-07-31T06:03:59;8.90;;;2.08;;
30571;SDS011;17348;50.948;10.696;2023-07-31T06:07:02;6.15;;;1.92;;
30571;SDS011;17348;50.948;10.696;2023-07-31T06:10:05;7.93;;;2.67;;
30571;SDS011;17348;50.948;10.696;2023-07-31T06:13:08;2.78;;;1.52;;
30571;SDS011;17348;50.948;10.696;2023-07-31T06:16:11;10.15;;;1.90;;
30571;SDS011;17348;50.948;10.696;2023-07-31T06:19:14;7.50;;;2.22;;
30571;SDS011;17348;50.948;10.696;2023-07-31T06:22:17;11.80;;;2.58;;
30571;SDS011;17348;50.948;10.696;2023-07-31T06:25:19;12.02;;;2.25;;
30571;SDS011;17348;50.948;10.696;2023-07-31T06:28:23;9.70;;;2.15;;
30571;SDS011;17348;50.948;10.696;2023-07-31T06:31:29;6.53;;;2.63;;
30571;SDS011;17348;50.948;10.696;2023-07-31T06:34:33;7.05;;;2.00;;
30571;SDS011;17348;50.948;10.696;2023-07-31T06:37:35;8.75;;;1.80;;
30571;SDS011;17348;50.948;10.696;2023-07-31T06:40:40;5.07;;;2.08;;
30571;SDS011;17348;50.948;10.696;2023-07-31T06:43:43;7.57;;;2.22;;
30571;SDS011;17348;50.948;10.696;2023-07-31T06:46:45;6.13;;;1.80;;
30571;SDS011;17348;50.948;10.696;2023-07-31T06:49:49;13.40;;;2.22;;
30571;SDS011;17348;50.948;10.696;2023-07-31T06:52:53;8.00;;;2.47;;
30571;SDS011;17348;50.948;10.696;2023-07-31T06:55:56;11.65;;;2.45;;
30571;SDS011;17348;50.948;10.696;2023-07-31T06:58:58;5.90;;;2.10;;
30571;SDS011;17348;50.948;10.696;2023-07-31T07:02:00;7.63;;;1.95;;
30571;SDS011;17348;50.948;10.696;2023-07-31T07:05:04;5.55;;;2.47;;
30571;SDS011;17348;50.948;10.696;2023-07-31T07:08:07;6.03;;;2.33;;
30571;SDS011;17348;50.948;10.696;2023-07-31T07:11:09;7.97;;;1.83;;
30571;SDS011;17348;50.948;10.696;2023-07-31T07:14:12;6.40;;;2.10;;
30571;SDS011;17348;50.948;10.696;2023-07-31T07:17:14;7.32;;;2.13;;
30571;SDS011;17348;50.948;10.696;2023-07-31T07:20:18;8.07;;;2.35;;
30571;SDS011;17348;50.948;10.696;2023-07-31T07:23:20;6.60;;;2.80;;
30571;SDS011;17348;50.948;10.696;2023-07-31T07:26:23;6.47;;;2.10;;
30571;SDS011;17348;50.948;10.696;2023-07-31T07:29:25;9.43;;;2.10;;
30571;SDS011;17348;50.948;10.696;2023-07-31T07:32:27;5.82;;;2.30;;
30571;SDS011;17348;50.948;10.696;2023-07-31T07:35:32;4.95;;;2.17;;
30571;SDS011;17348;50.948;10.696;2023-07-31T07:38:35;5.75;;;1.88;;
30571;SDS011;17348;50.948;10.696;2023-07-31T07:41:39;3.85;;;1.80;;
30571;SDS011;17348;50.948;10.696;2023-07-31T07:44:42;5.32;;;2.00;;
30571;SDS011;17348;50.948;10.696;2023-07-31T07:47:44;7.93;;;2.35;;
30571;SDS011;17348;50.948;10.696;2023-07-31T07:50:48;3.00;;;1.80;;
30571;SDS011;17348;50.948;10.696;2023-07-31T07:53:50;6.57;;;2.28;;
30571;SDS011;17348;50.948;10.696;2023-07-31T07:56:53;5.97;;;1.90;;
30571;SDS011;17348;50.948;10.696;2023-07-31T07:59:55;6.28;;;2.22;;
30571;SDS011;17348;50.948;10.696;2023-07-31T08:02:57;5.10;;;2.20;;
30571;SDS011;17348;50.948;10.696;2023-07-31T08:06:01;4.28;;;2.15;;
30571;SDS011;17348;50.948;10.696;2023-07-31T08:09:03;9.98;;;2.08;;
30571;SDS011;17348;50.948;10.696;2023-07-31T08:12:07;4.78;;;2.40;;
30571;SDS011;17348;50.948;10.696;2023-07-31T08:15:09;4.13;;;1.70;;
30571;SDS011;17348;50.948;10.696;2023-07-31T08:18:12;5.75;;;1.67;;
30571;SDS011;17348;50.948;10.696;2023-07-31T08:21:16;5.95;;;1.83;;
30571;SDS011;17348;50.948;10.696;2023-07-31T08:24:18;2.65;;;2.03;;
30571;SDS011;17348;50.948;10.696;2023-07-31T08:27:20;3.55;;;1.95;;
30571;SDS011;17348;50.948;10.696;2023-07-31T08:30:22;11.55;;;2.40;;
30571;SDS011;17348;50.948;10.696;2023-07-31T08:33:25;3.95;;;2.17;;
30571;SDS011;17348;50.948;10.696;2023-07-31T08:36:28;7.35;;;2.08;;
30571;SDS011;17348;50.948;10.696;2023-07-31T08:39:31;2.90;;;1.75;;
30571;SDS011;17348;50.948;10.696;2023-07-31T08:42:33;4.75;;;2.03;;
30571;SDS011;17348;50.948;10.696;2023-07-31T08:45:35;7.28;;;1.92;;
30571;SDS011;17348;50.948;10.696;2023-07-31T08:48:38;6.95;;;3.00;;
30571;SDS011;17348;50.948;10.696;2023-07-31T08:51:43;6.68;;;2.35;;
30571;SDS011;17348;50.948;10.696;2023-07-31T08:54:50;5.75;;;2.95;;
30571;SDS011;17348;50.948;10.696;2023-07-31T08:57:53;4.28;;;2.42;;
30571;SDS011;17348;50.948;10.696;2023-07-31T09:00:57;6.38;;;2.10;;
30571;SDS011;17348;50.948;10.696;2023-07-31T09:04:00;4.57;;;2.25;;
30571;SDS011;17348;50.948;10.696;2023-07-31T09:07:06;6.50;;;2.55;;
30571;SDS011;17348;50.948;10.696;2023-07-31T09:10:09;6.45;;;2.25;;
30571;SDS011;17348;50.948;10.696;2023-07-31T09:13:12;8.80;;;2.40;;
30571;SDS011;17348;50.948;10.696;2023-07-31T09:16:15;4.97;;;1.70;;
30571;SDS011;17348;50.948;10.696;2023-07-31T09:19:22;6.57;;;2.03;;
30571;SDS011;17348;50.948;10.696;2023-07-31T09:22:34;8.93;;;2.53;;
30571;SDS011;17348;50.948;10.696;2023-07-31T09:25:37;5.07;;;2.42;;
30571;SDS011;17348;50.948;10.696;2023-07-31T09:28:40;3.88;;;2.15;;
30571;SDS011;17348;50.948;10.696;2023-07-31T09:31:42;9.15;;;2.25;;
30571;SDS011;17348;50.948;10.696;2023-07-31T09:34:45;5.85;;;2.13;;
30571;SDS011;17348;50.948;10.696;2023-07-31T09:37:49;5.40;;;2.53;;
30571;SDS011;17348;50.948;10.696;2023-07-31T09:40:53;7.07;;;2.92;;
30571;SDS011;17348;50.948;10.696;2023-07-31T09:43:55;5.78;;;2.55;;
30571;SDS011;17348;50.948;10.696;2023-07-31T09:46:58;6.28;;;2.40;;
30571;SDS011;17348;50.948;10.696;2023-07-31T09:50:00;5.28;;;2.58;;
30571;SDS011;17348;50.948;10.696;2023-07-31T09:53:04;6.95;;;2.88;;
30571;SDS011;17348;50.948;10.696;2023-07-31T09:56:07;13.13;;;2.60;;
30571;SDS011;17348;50.948;10.696;2023-07-31T09:59:10;4.78;;;2.45;;
30571;SDS011;17348;50.948;10.696;2023-07-31T10:02:15;6.85;;;2.40;;
30571;SDS011;17348;50.948;10.696;2023-07-31T10:05:22;7.75;;;2.50;;
30571;SDS011;17348;50.948;10.696;2023-07-31T10:08:28;4.47;;;2.17;;
30571;SDS011;17348;50.948;10.696;2023-07-31T10:11:34;6.13;;;2.72;;
30571;SDS011;17348;50.948;10.696;2023-07-31T10:14:40;5.95;;;2.25;;
30571;SDS011;17348;50.948;10.696;2023-07-31T10:17:44;4.25;;;2.40;;
30571;SDS011;17348;50.948;10.696;2023-07-31T10:20:47;5.95;;;2.33;;
30571;SDS011;17348;50.948;10.696;2023-07-31T10:23:52;6.65;;;2.65;;
30571;SDS011;17348;50.948;10.696;2023-07-31T10:26:55;8.95;;;2.47;;
30571;SDS011;17348;50.948;10.696;2023-07-31T10:30:01;8.85;;;2.70;;
30571;SDS011;17348;50.948;10.696;2023-07-31T10:33:07;9.98;;;2.67;;
30571;SDS011;17348;50.948;10.696;2023-07-31T10:36:13;9.90;;;2.90;;
30571;SDS011;17348;50.948;10.696;2023-07-31T10:42:45;6.80;;;2.67;;
30571;SDS011;17348;50.948;10.696;2023-07-31T10:45:49;6.70;;;3.15;;
30571;SDS011;17348;50.948;10.696;2023-07-31T10:48:57;9.88;;;2.88;;
30571;SDS011;17348;50.948;10.696;2023-07-31T10:52:02;4.70;;;2.13;;
30571;SDS011;17348;50.948;10.696;2023-07-31T10:55:25;11.35;;;2.55;;
30571;SDS011;17348;50.948;10.696;2023-07-31T10:58:28;7.97;;;2.50;;
30571;SDS011;17348;50.948;10.696;2023-07-31T11:05:08;5.57;;;2.83;;
30571;SDS011;17348;50.948;10.696;2023-07-31T11:08:14;8.00;;;2.80;;
30571;SDS011;17348;50.948;10.696;2023-07-31T11:11:19;7.45;;;2.90;;
30571;SDS011;17348;50.948;10.696;2023-07-31T11:14:22;6.15;;;1.83;;
30571;SDS011;17348;50.948;10.696;2023-07-31T11:17:25;5.93;;;2.80;;
30571;SDS011;17348;50.948;10.696;2023-07-31T11:20:28;5.63;;;2.42;;
30571;SDS011;17348;50.948;10.696;2023-07-31T11:23:31;13.15;;;2.60;;
30571;SDS011;17348;50.948;10.696;2023-07-31T11:26:35;6.93;;;2.45;;
30571;SDS011;17348;50.948;10.696;2023-07-31T11:29:37;5.72;;;2.58;;
30571;SDS011;17348;50.948;10.696;2023-07-31T11:32:39;7.55;;;2.55;;
30571;SDS011;17348;50.948;10.696;2023-07-31T11:35:43;6.50;;;2.38;;
30571;SDS011;17348;50.948;10.696;2023-07-31T11:38:46;5.40;;;2.10;;
30571;SDS011;17348;50.948;10.696;2023-07-31T11:41:50;5.40;;;1.90;;
30571;SDS011;17348;50.948;10.696;2023-07-31T11:44:52;7.25;;;2.35;;
30571;SDS011;17348;50.948;10.696;2023-07-31T11:47:55;7.18;;;2.10;;
30571;SDS011;17348;50.948;10.696;2023-07-31T11:50:58;6.68;;;2.10;;
30571;SDS011;17348;50.948;10.696;2023-07-31T11:54:01;3.60;;;1.92;;
30571;SDS011;17348;50.948;10.696;2023-07-31T11:57:06;4.57;;;1.90;;
30571;SDS011;17348;50.948;10.696;2023-07-31T12:00:09;4.88;;;2.60;;
30571;SDS011;17348;50.948;10.696;2023-07-31T12:03:14;5.68;;;1.92;;
30571;SDS011;17348;50.948;10.696;2023-07-31T12:06:16;4.43;;;1.80;;
30571;SDS011;17348;50.948;10.696;2023-07-31T12:09:21;4.63;;;1.95;;
30571;SDS011;17348;50.948;10.696;2023-07-31T12:12:25;5.72;;;1.80;;
30571;SDS011;17348;50.948;10.696;2023-07-31T12:15:34;4.57;;;2.17;;
30571;SDS011;17348;50.948;10.696;2023-07-31T12:18:38;3.63;;;1.90;;
30571;SDS011;17348;50.948;10.696;2023-07-31T12:21:41;3.83;;;2.00;;
30571;SDS011;17348;50.948;10.696;2023-07-31T12:24:43;7.90;;;2.40;;
30571;SDS011;17348;50.948;10.696;2023-07-31T12:27:47;5.47;;;2.30;;
30571;SDS011;17348;50.948;10.696;2023-07-31T12:30:56;3.55;;;1.60;;
30571;SDS011;17348;50.948;10.696;2023-07-31T12:33:59;4.68;;;2.20;;
30571;SDS011;17348;50.948;10.696;2023-07-31T12:37:03;4.38;;;2.45;;
30571;SDS011;17348;50.948;10.696;2023-07-31T12:40:07;9.35;;;2.15;;
30571;SDS011;17348;50.948;10.696;2023-07-31T12:43:13;6.47;;;1.88;;
30571;SDS011;17348;50.948;10.696;2023-07-31T12:46:15;7.60;;;1.77;;
30571;SDS011;17348;50.948;10.696;2023-07-31T12:49:18;6.68;;;2.00;;
30571;SDS011;17348;50.948;10.696;2023-07-31T12:52:20;7.35;;;1.90;;
30571;SDS011;17348;50.948;10.696;2023-07-31T12:55:22;7.63;;;2.08;;
30571;SDS011;17348;50.948;10.696;2023-07-31T12:58:26;7.05;;;1.73;;
30571;SDS011;17348;50.948;10.696;2023-07-31T13:01:29;8.93;;;2.33;;
30571;SDS011;17348;50.948;10.696;2023-07-31T13:04:31;5.15;;;2.15;;
30571;SDS011;17348;50.948;10.696;2023-07-31T13:07:34;5.57;;;2.03;;
30571;SDS011;17348;50.948;10.696;2023-07-31T13:10:36;2.35;;;1.80;;
30571;SDS011;17348;50.948;10.696;2023-07-31T13:13:40;3.40;;;1.80;;
30571;SDS011;17348;50.948;10.696;2023-07-31T13:16:42;7.57;;;2.28;;
30571;SDS011;17348;50.948;10.696;2023-07-31T13:19:45;4.68;;;1.85;;
30571;SDS011;17348;50.948;10.696;2023-07-31T13:22:47;4.07;;;2.10;;
30571;SDS011;17348;50.948;10.696;2023-07-31T13:25:49;8.45;;;2.22;;
30571;SDS011;17348;50.948;10.696;2023-07-31T13:28:53;6.00;;;2.05;;
30571;SDS011;17348;50.948;10.696;2023-07-31T13:31:55;6.53;;;2.47;;
30571;SDS011;17348;50.948;10.696;2023-07-31T13:34:57;6.07;;;1.80;;
30571;SDS011;17348;50.948;10.696;2023-07-31T13:38:00;5.70;;;2.13;;
30571;SDS011;17348;50.948;10.696;2023-07-31T13:41:02;9.88;;;2.13;;
30571;SDS011;17348;50.948;10.696;2023-07-31T13:44:07;8.95;;;3.13;;
30571;SDS011;17348;50.948;10.696;2023-07-31T13:47:09;8.63;;;3.03;;
30571;SDS011;17348;50.948;10.696;2023-07-31T13:50:12;7.95;;;2.42;;
30571;SDS011;17348;50.948;10.696;2023-07-31T13:53:14;5.60;;;2.03;;
30571;SDS011;17348;50.948;10.696;2023-07-31T13:56:17;5.72;;;2.20;;
30571;SDS011;17348;50.948;10.696;2023-07-31T13:59:20;4.93;;;2.38;;
30571;SDS011;17348;50.948;10.696;2023-07-31T14:02:23;9.23;;;2.60;;
30571;SDS011;17348;50.948;10.696;2023-07-31T14:05:25;5.93;;;1.95;;
30571;SDS011;17348;50.948;10.696;2023-07-31T14:08:27;10.13;;;2.60;;
30571;SDS011;17348;50.948;10.696;2023-07-31T14:11:30;9.02;;;2.58;;
30571;SDS011;17348;50.948;10.696;2023-07-31T14:14:34;8.95;;;3.17;;
30571;SDS011;17348;50.948;10.696;2023-07-31T14:17:36;9.48;;;2.58;;
30571;SDS011;17348;50.948;10.696;2023-07-31T14:20:41;17.35;;;2.78;;
30571;SDS011;17348;50.948;10.696;2023-07-31T14:23:44;5.03;;;2.15;;
30571;SDS011;17348;50.948;10.696;2023-07-31T14:26:46;7.50;;;2.35;;
30571;SDS011;17348;50.948;10.696;2023-07-31T14:29:50;6.80;;;2.25;;
30571;SDS011;17348;50.948;10.696;2023-07-31T14:32:52;5.13;;;2.03;;
30571;SDS011;17348;50.948;10.696;2023-07-31T14:35:54;8.00;;;2.10;;
30571;SDS011;17348;50.948;10.696;2023-07-31T14:38:57;10.50;;;2.67;;
30571;SDS011;17348;50.948;10.696;2023-07-31T14:41:59;5.43;;;2.45;;
30571;SDS011;17348;50.948;10.696;2023-07-31T14:45:04;8.52;;;2.65;;
30571;SDS011;17348;50.948;10.696;2023-07-31T14:48:07;7.75;;;2.70;;
30571;SDS011;17348;50.948;10.696;2023-07-31T14:51:10;7.03;;;2.67;;
30571;SDS011;17348;50.948;10.696;2023-07-31T14:54:12;6.43;;;2.60;;
30571;SDS011;17348;50.948;10.696;2023-07-31T14:57:15;6.82;;;2.45;;
30571;SDS011;17348;50.948;10.696;2023-07-31T15:00:18;5.28;;;2.78;;
30571;SDS011;17348;50.948;10.696;2023-07-31T15:03:21;9.75;;;2.42;;
30571;SDS011;17348;50.948;10.696;2023-07-31T15:06:25;10.65;;;2.60;;
30571;SDS011;17348;50.948;10.696;2023-07-31T15:09:27;6.93;;;2.55;;
30571;SDS011;17348;50.948;10.696;2023-07-31T15:12:30;11.00;;;2.70;;
30571;SDS011;17348;50.948;10.696;2023-07-31T15:15:34;9.18;;;2.38;;
30571;SDS011;17348;50.948;10.696;2023-07-31T15:18:36;10.07;;;2.45;;
30571;SDS011;17348;50.948;10.696;2023-07-31T15:21:38;7.65;;;2.45;;
30571;SDS011;17348;50.948;10.696;2023-07-31T15:24:41;13.52;;;2.55;;
30571;SDS011;17348;50.948;10.696;2023-07-31T15:27:43;7.55;;;2.50;;
30571;SDS011;17348;50.948;10.696;2023-07-31T15:30:47;4.13;;;2.42;;
30571;SDS011;17348;50.948;10.696;2023-07-31T15:33:50;10.73;;;2.17;;
30571;SDS011;17348;50.948;10.696;2023-07-31T15:36:52;7.07;;;2.85;;
30571;SDS011;17348;50.948;10.696;2023-07-31T15:39:54;7.88;;;2.97;;
30571;SDS011;17348;50.948;10.696;2023-07-31T15:42:57;10.98;;;2.80;;
30571;SDS011;17348;50.948;10.696;2023-07-31T15:46:02;4.88;;;2.45;;
30571;SDS011;17348;50.948;10.696;2023-07-31T15:49:06;8.02;;;3.08;;
30571;SDS011;17348;50.948;10.696;2023-07-31T15:52:08;8.57;;;2.70;;
30571;SDS011;17348;50.948;10.696;2023-07-31T15:55:11;8.95;;;3.08;;
30571;SDS011;17348;50.948;10.696;2023-07-31T15:58:13;7.93;;;2.38;;
30571;SDS011;17348;50.948;10.696;2023-07-31T16:01:17;5.38;;;2.45;;
30571;SDS011;17348;50.948;10.696;2023-07-31T16:04:19;6.57;;;2.25;;
30571;SDS011;17348;50.948;10.696;2023-07-31T16:07:22;4.75;;;2.00;;
30571;SDS011;17348;50.948;10.696;2023-07-31T16:10:24;8.98;;;2.60;;
30571;SDS011;17348;50.948;10.696;2023-07-31T16:13:26;6.85;;;2.38;;
30571;SDS011;17348;50.948;10.696;2023-07-31T16:16:30;4.20;;;2.55;;
30571;SDS011;17348;50.948;10.696;2023-07-31T16:19:33;7.85;;;2.22;;
30571;SDS011;17348;50.948;10.696;2023-07-31T16:22:35;5.32;;;2.22;;
30571;SDS011;17348;50.948;10.696;2023-07-31T16:25:37;11.05;;;2.70;;
30571;SDS011;17348;50.948;10.696;2023-07-31T16:28:40;9.90;;;2.80;;
30571;SDS011;17348;50.948;10.696;2023-07-31T16:31:44;8.65;;;3.15;;
30571;SDS011;17348;50.948;10.696;2023-07-31T16:34:47;6.53;;;2.70;;
30571;SDS011;17348;50.948;10.696;2023-07-31T16:37:50;6.90;;;3.30;;
30571;SDS011;17348;50.948;10.696;2023-07-31T16:40:55;8.88;;;2.33;;
30571;SDS011;17348;50.948;10.696;2023-07-31T16:43:57;8.02;;;3.50;;
30571;SDS011;17348;50.948;10.696;2023-07-31T16:47:01;6.25;;;2.83;;
30571;SDS011;17348;50.948;10.696;2023-07-31T16:50:03;5.80;;;2.75;;
30571;SDS011;17348;50.948;10.696;2023-07-31T16:53:06;10.40;;;3.08;;
30571;SDS011;17348;50.948;10.696;2023-07-31T16:56:09;4.00;;;2.22;;
30571;SDS011;17348;50.948;10.696;2023-07-31T16:59:11;10.30;;;3.33;;
30571;SDS011;17348;50.948;10.696;2023-07-31T17:02:15;8.80;;;2.85;;
30571;SDS011;17348;50.948;10.696;2023-07-31T17:05:17;8.65;;;2.10;;
30571;SDS011;17348;50.948;10.696;2023-07-31T17:08:19;7.72;;;2.83;;
30571;SDS011;17348;50.948;10.696;2023-07-31T17:11:22;6.93;;;2.60;;
30571;SDS011;17348;50.948;10.696;2023-07-31T17:14:24;6.80;;;3.05;;
30571;SDS011;17348;50.948;10.696;2023-07-31T17:17:28;8.43;;;2.53;;
30571;SDS011;17348;50.948;10.696;2023-07-31T17:20:30;8.93;;;3.15;;
30571;SDS011;17348;50.948;10.696;2023-07-31T17:23:33;8.70;;;3.08;;
30571;SDS011;17348;50.948;10.696;2023-07-31T17:26:36;7.15;;;2.60;;
30571;SDS011;17348;50.948;10.696;2023-07-31T17:29:38;7.03;;;2.58;;
30571;SDS011;17348;50.948;10.696;2023-07-31T17:32:42;9.07;;;2.90;;
30571;SDS011;17348;50.948;10.696;2023-07-31T17:35:44;8.23;;;3.08;;
30571;SDS011;17348;50.948;10.696;2023-07-31T17:38:46;13.10;;;2.70;;
30571;SDS011;17348;50.948;10.696;2023-07-31T17:41:49;6.38;;;2.70;;
30571;SDS011;17348;50.948;10.696;2023-07-31T17:44:51;6.38;;;2.85;;
30571;SDS011;17348;50.948;10.696;2023-07-31T17:47:56;9.55;;;3.00;;
30571;SDS011;17348;50.948;10.696;2023-07-31T17:50:59;8.15;;;2.72;;
30571;SDS011;17348;50.948;10.696;2023-07-31T17:54:01;10.20;;;3.00;;
30571;SDS011;17348;50.948;10.696;2023-07-31T17:57:05;7.10;;;2.70;;
30571;SDS011;17348;50.948;10.696;2023-07-31T18:00:08;10.68;;;2.97;;
30571;SDS011;17348;50.948;10.696;2023-07-31T18:03:13;6.95;;;2.78;;
30571;SDS011;17348;50.948;10.696;2023-07-31T18:06:15;6.60;;;2.47;;
30571;SDS011;17348;50.948;10.696;2023-07-31T18:09:17;5.18;;;2.53;;
30571;SDS011;17348;50.948;10.696;2023-07-31T18:12:20;5.35;;;2.55;;
30571;SDS011;17348;50.948;10.696;2023-07-31T18:15:22;11.35;;;2.60;;
30571;SDS011;17348;50.948;10.696;2023-07-31T18:18:26;8.85;;;2.60;;
30571;SDS011;17348;50.948;10.696;2023-07-31T18:21:28;9.50;;;2.95;;